createdAt,value
2019-03-28T00:00:41.342Z,0
2019-03-28T00:01:41.249Z,0
2019-03-28T00:02:41.793Z,0
2019-03-28T00:03:41.234Z,0
2019-03-28T00:04:41.227Z,0
2019-03-28T00:05:41.215Z,0
2019-03-28T00:06:40.954Z,0
2019-03-28T00:07:41.204Z,0
2019-03-28T00:08:41.192Z,0
2019-03-28T00:09:41.291Z,0
2019-03-28T00:10:41.169Z,0
2019-03-28T00:11:41.178Z,0
2019-03-28T00:12:41.188Z,0
2019-03-28T00:13:40.896Z,0
2019-03-28T00:14:41.142Z,0
2019-03-28T00:15:41.168Z,0
2019-03-28T00:16:41.127Z,0
2019-03-28T00:17:41.653Z,0
2019-03-28T00:18:41.108Z,0
2019-03-28T00:19:40.853Z,0
2019-03-28T00:20:41.085Z,0
2019-03-28T00:21:40.824Z,0
2019-03-28T00:22:41.070Z,0
2019-03-28T00:23:41.057Z,0
2019-03-28T00:24:40.798Z,0
2019-03-28T00:25:41.038Z,0
2019-03-28T00:26:41.029Z,0
2019-03-28T00:27:41.031Z,0
2019-03-28T00:28:41.788Z,0
2019-03-28T00:29:41.009Z,0
2019-03-28T00:30:40.999Z,0
2019-03-28T00:31:41.016Z,0
2019-03-28T00:32:40.737Z,0
2019-03-28T00:33:40.975Z,0
2019-03-28T00:34:40.958Z,0
2019-03-28T00:35:40.957Z,0
2019-03-28T00:36:40.961Z,0
2019-03-28T00:37:40.939Z,0
2019-03-28T00:38:40.925Z,0
2019-03-28T00:39:40.939Z,0
2019-03-28T00:40:41.114Z,0
2019-03-28T00:41:40.901Z,0
2019-03-28T00:42:40.917Z,0
2019-03-28T00:43:40.879Z,0
2019-03-28T00:44:41.196Z,0
2019-03-28T00:45:40.864Z,0
2019-03-28T00:46:40.858Z,0
2019-03-28T00:47:40.868Z,0
2019-03-28T00:48:40.836Z,0
2019-03-28T00:49:40.835Z,0
2019-03-28T00:50:41.606Z,0
2019-03-28T00:51:43.106Z,0
2019-03-28T00:52:41.194Z,0
2019-03-28T00:53:40.795Z,0
2019-03-28T00:54:40.806Z,0
2019-03-28T00:55:40.783Z,0
2019-03-28T00:56:55.661Z,0
2019-03-28T00:57:40.765Z,0
2019-03-28T00:58:41.404Z,0
2019-03-28T00:59:40.749Z,0
2019-03-28T01:00:40.734Z,0
2019-03-28T01:01:40.724Z,0
2019-03-28T01:02:40.719Z,0
2019-03-28T01:03:41.333Z,0
2019-03-28T01:04:40.701Z,0
2019-03-28T01:05:40.440Z,0
2019-03-28T01:06:40.684Z,0
2019-03-28T01:07:40.669Z,0
2019-03-28T01:08:40.665Z,0
2019-03-28T01:09:40.655Z,0
2019-03-28T01:10:40.646Z,0
2019-03-28T01:11:40.642Z,0
2019-03-28T01:12:40.632Z,0
2019-03-28T01:13:40.621Z,0
2019-03-28T01:14:40.610Z,0
2019-03-28T01:15:40.600Z,0
2019-03-28T01:16:40.594Z,0
2019-03-28T01:17:40.585Z,0
2019-03-28T01:18:40.583Z,0
2019-03-28T01:19:40.567Z,0
2019-03-28T01:20:40.563Z,0
2019-03-28T01:21:40.329Z,0
2019-03-28T01:22:40.539Z,0
2019-03-28T01:23:40.531Z,0
2019-03-28T01:24:40.975Z,0
2019-03-28T01:25:40.513Z,0
2019-03-28T01:26:40.509Z,0
2019-03-28T01:27:40.496Z,0
2019-03-28T01:28:41.126Z,0
2019-03-28T01:29:40.477Z,0
2019-03-28T01:30:40.472Z,0
2019-03-28T01:31:41.001Z,0
2019-03-28T01:32:40.448Z,0
2019-03-28T01:33:40.441Z,0
2019-03-28T01:34:40.502Z,0
2019-03-28T01:35:40.416Z,0
2019-03-28T01:36:40.701Z,0
2019-03-28T01:37:40.420Z,0
2019-03-28T01:38:40.398Z,0
2019-03-28T01:39:40.410Z,0
2019-03-28T01:40:40.388Z,0
2019-03-28T01:41:41.133Z,0
2019-03-28T01:42:40.365Z,0
2019-03-28T01:43:40.555Z,0
2019-03-28T01:44:40.382Z,0
2019-03-28T01:45:40.585Z,0
2019-03-28T01:46:40.327Z,0
2019-03-28T01:47:40.066Z,0
2019-03-28T01:48:40.265Z,0
2019-03-28T01:49:40.315Z,0
2019-03-28T01:50:41.122Z,0
2019-03-28T01:51:40.282Z,0
2019-03-28T01:52:40.276Z,0
2019-03-28T01:53:40.647Z,0
2019-03-28T01:54:40.265Z,0
2019-03-28T01:55:40.252Z,0
2019-03-28T01:56:41.093Z,0
2019-03-28T01:57:40.229Z,0
2019-03-28T01:58:40.229Z,0
2019-03-28T01:59:40.221Z,0
2019-03-28T02:00:40.736Z,0
2019-03-28T02:01:40.200Z,0
2019-03-28T02:02:40.188Z,0
2019-03-28T02:03:39.922Z,0
2019-03-28T02:04:40.180Z,0
2019-03-28T02:05:40.162Z,0
2019-03-28T02:06:40.151Z,0
2019-03-28T02:07:39.896Z,0
2019-03-28T02:08:40.143Z,0
2019-03-28T02:09:40.120Z,0
2019-03-28T02:10:40.123Z,0
2019-03-28T02:11:40.324Z,0
2019-03-28T02:12:40.099Z,0
2019-03-28T02:13:40.091Z,0
2019-03-28T02:14:40.737Z,0
2019-03-28T02:15:40.073Z,0
2019-03-28T02:16:40.058Z,0
2019-03-28T02:17:40.056Z,0
2019-03-28T02:18:40.045Z,0
2019-03-28T02:19:40.039Z,0
2019-03-28T02:20:40.983Z,0
2019-03-28T02:21:39.766Z,0
2019-03-28T02:22:40.009Z,0
2019-03-28T02:23:40.001Z,0
2019-03-28T02:24:39.993Z,0
2019-03-28T02:25:39.993Z,0
2019-03-28T02:26:40.061Z,0
2019-03-28T02:27:39.964Z,0
2019-03-28T02:28:39.988Z,0
2019-03-28T02:29:40.502Z,0
2019-03-28T02:30:39.953Z,0
2019-03-28T02:31:39.691Z,0
2019-03-28T02:32:41.244Z,0
2019-03-28T02:33:39.926Z,0
2019-03-28T02:34:39.914Z,0
2019-03-28T02:35:39.913Z,0
2019-03-28T02:36:39.890Z,0
2019-03-28T02:37:39.896Z,0
2019-03-28T02:38:39.958Z,0
2019-03-28T02:39:39.870Z,0
2019-03-28T02:40:39.874Z,0
2019-03-28T02:41:40.004Z,0
2019-03-28T02:42:39.881Z,0
2019-03-28T02:43:39.840Z,0
2019-03-28T02:44:40.206Z,0
2019-03-28T02:45:39.829Z,0
2019-03-28T02:46:39.916Z,0
2019-03-28T02:47:40.698Z,0
2019-03-28T02:48:39.787Z,0
2019-03-28T02:49:39.789Z,0
2019-03-28T02:50:40.397Z,0
2019-03-28T02:51:39.756Z,0
2019-03-28T02:52:39.744Z,0
2019-03-28T02:53:39.866Z,0
2019-03-28T02:54:39.735Z,0
2019-03-28T02:55:39.738Z,0
2019-03-28T02:56:39.751Z,0
2019-03-28T02:57:48.928Z,0
2019-03-28T02:58:39.705Z,0
2019-03-28T02:59:39.696Z,0
2019-03-28T03:00:39.702Z,0
2019-03-28T03:01:40.460Z,0
2019-03-28T03:02:39.856Z,0
2019-03-28T03:03:39.647Z,0
2019-03-28T03:04:39.704Z,0
2019-03-28T03:05:39.767Z,0
2019-03-28T03:06:39.432Z,0
2019-03-28T03:07:39.395Z,0
2019-03-28T03:08:40.828Z,0
2019-03-28T03:09:39.591Z,0
2019-03-28T03:10:39.586Z,0
2019-03-28T03:11:42.698Z,0
2019-03-28T03:12:39.328Z,0
2019-03-28T03:13:39.566Z,0
2019-03-28T03:14:39.947Z,0
2019-03-28T03:15:39.538Z,0
2019-03-28T03:16:39.531Z,0
2019-03-28T03:17:39.294Z,0
2019-03-28T03:18:40.954Z,0
2019-03-28T03:19:39.512Z,0
2019-03-28T03:20:39.493Z,0
2019-03-28T03:21:40.801Z,0
2019-03-28T03:22:39.480Z,0
2019-03-28T03:23:39.471Z,0
2019-03-28T03:24:39.481Z,0
2019-03-28T03:25:39.449Z,0
2019-03-28T03:26:39.182Z,0
2019-03-28T03:27:39.431Z,0
2019-03-28T03:28:39.423Z,0
2019-03-28T03:29:39.415Z,0
2019-03-28T03:30:39.552Z,0
2019-03-28T03:31:39.455Z,0
2019-03-28T03:32:39.523Z,0
2019-03-28T03:33:42.258Z,0
2019-03-28T03:34:40.738Z,0
2019-03-28T03:35:39.397Z,0
2019-03-28T03:36:39.379Z,0
2019-03-28T03:37:39.338Z,0
2019-03-28T03:38:39.329Z,0
2019-03-28T03:39:39.809Z,0
2019-03-28T03:40:39.318Z,0
2019-03-28T03:41:39.343Z,0
2019-03-28T03:42:39.464Z,0
2019-03-28T03:43:39.040Z,0
2019-03-28T03:44:39.267Z,0
2019-03-28T03:45:40.251Z,0
2019-03-28T03:46:39.294Z,0
2019-03-28T03:47:39.269Z,0
2019-03-28T03:48:39.237Z,0
2019-03-28T03:49:39.009Z,0
2019-03-28T03:50:39.217Z,0
2019-03-28T03:51:39.350Z,0
2019-03-28T03:52:39.227Z,0
2019-03-28T03:53:39.281Z,0
2019-03-28T03:54:38.928Z,0
2019-03-28T03:55:39.187Z,0
2019-03-28T03:56:39.177Z,0
2019-03-28T03:57:39.159Z,0
2019-03-28T03:58:39.144Z,0
2019-03-28T03:59:39.878Z,0
2019-03-28T04:00:39.162Z,0
2019-03-28T04:01:39.128Z,0
2019-03-28T04:02:39.352Z,0
2019-03-28T04:03:39.128Z,0
2019-03-28T04:04:39.088Z,0
2019-03-28T04:05:39.085Z,0
2019-03-28T04:06:39.120Z,0
2019-03-28T04:07:39.075Z,0
2019-03-28T04:08:39.064Z,0
2019-03-28T04:09:39.054Z,0
2019-03-28T04:10:39.040Z,0
2019-03-28T04:11:39.031Z,0
2019-03-28T04:12:39.026Z,0
2019-03-28T04:13:39.144Z,0
2019-03-28T04:14:39.008Z,0
2019-03-28T04:15:40.394Z,0
2019-03-28T04:16:39.010Z,0
2019-03-28T04:17:38.977Z,0
2019-03-28T04:18:39.745Z,0
2019-03-28T04:19:39.589Z,0
2019-03-28T04:20:38.700Z,0
2019-03-28T04:21:38.948Z,0
2019-03-28T04:22:39.776Z,0
2019-03-28T04:23:38.920Z,0
2019-03-28T04:24:38.924Z,0
2019-03-28T04:25:39.746Z,0
2019-03-28T04:26:39.209Z,0
2019-03-28T04:27:38.890Z,0
2019-03-28T04:28:40.954Z,0
2019-03-28T04:29:38.866Z,0
2019-03-28T04:30:38.855Z,0
2019-03-28T04:31:38.864Z,0
2019-03-28T04:32:38.848Z,0
2019-03-28T04:33:38.833Z,0
2019-03-28T04:34:38.824Z,0
2019-03-28T04:35:38.827Z,0
2019-03-28T04:36:38.824Z,0
2019-03-28T04:37:39.872Z,0
2019-03-28T04:38:38.781Z,0
2019-03-28T04:39:38.811Z,0
2019-03-28T04:40:39.238Z,0
2019-03-28T04:41:38.805Z,0
2019-03-28T04:42:38.758Z,0
2019-03-28T04:43:38.736Z,0
2019-03-28T04:44:38.740Z,0
2019-03-28T04:45:38.717Z,0
2019-03-28T04:46:38.724Z,0
2019-03-28T04:47:38.885Z,0
2019-03-28T04:48:38.692Z,0
2019-03-28T04:49:38.688Z,4
2019-03-28T04:50:39.997Z,4
2019-03-28T04:51:38.660Z,0
2019-03-28T04:52:39.269Z,4
2019-03-28T04:53:38.394Z,4
2019-03-28T04:54:38.639Z,4
2019-03-28T04:55:38.631Z,4
2019-03-28T04:56:38.616Z,4
2019-03-28T04:57:40.988Z,8
2019-03-28T04:58:51.813Z,8
2019-03-28T04:59:38.603Z,8
2019-03-28T05:00:38.583Z,8
2019-03-28T05:01:38.570Z,12
2019-03-28T05:02:38.761Z,12
2019-03-28T05:03:38.553Z,16
2019-03-28T05:04:38.542Z,20
2019-03-28T05:05:39.348Z,20
2019-03-28T05:06:40.446Z,24
2019-03-28T05:07:38.641Z,24
2019-03-28T05:08:38.267Z,32
2019-03-28T05:09:38.504Z,32
2019-03-28T05:10:40.337Z,40
2019-03-28T05:11:38.605Z,44
2019-03-28T05:12:38.473Z,48
2019-03-28T05:13:38.209Z,52
2019-03-28T05:14:38.455Z,56
2019-03-28T05:15:39.300Z,64
2019-03-28T05:16:38.438Z,68
2019-03-28T05:17:38.427Z,72
2019-03-28T05:18:38.946Z,80
2019-03-28T05:19:38.406Z,84
2019-03-28T05:20:38.403Z,96
2019-03-28T05:21:38.616Z,96
2019-03-28T05:22:38.379Z,108
2019-03-28T05:23:38.391Z,112
2019-03-28T05:24:38.115Z,120
2019-03-28T05:25:38.356Z,124
2019-03-28T05:26:38.347Z,136
2019-03-28T05:27:38.438Z,144
2019-03-28T05:28:38.328Z,152
2019-03-28T05:29:38.319Z,160
2019-03-28T05:30:38.308Z,168
2019-03-28T05:31:39.145Z,176
2019-03-28T05:32:38.288Z,184
2019-03-28T05:33:38.287Z,196
2019-03-28T05:34:39.144Z,204
2019-03-28T05:35:38.263Z,212
2019-03-28T05:36:38.255Z,220
2019-03-28T05:37:39.020Z,228
2019-03-28T05:38:38.235Z,232
2019-03-28T05:39:38.224Z,244
2019-03-28T05:40:39.110Z,248
2019-03-28T05:41:38.206Z,256
2019-03-28T05:42:38.211Z,264
2019-03-28T05:43:38.188Z,272
2019-03-28T05:44:38.178Z,276
2019-03-28T05:45:37.921Z,288
2019-03-28T05:46:38.399Z,296
2019-03-28T05:47:38.166Z,304
2019-03-28T05:48:38.210Z,308
2019-03-28T05:49:37.884Z,316
2019-03-28T05:50:38.130Z,320
2019-03-28T05:51:38.120Z,332
2019-03-28T05:52:37.867Z,340
2019-03-28T05:53:38.101Z,344
2019-03-28T05:54:38.091Z,352
2019-03-28T05:55:38.120Z,360
2019-03-28T05:56:38.073Z,364
2019-03-28T05:57:38.061Z,368
2019-03-28T05:58:38.054Z,372
2019-03-28T05:59:38.046Z,376
2019-03-28T06:00:41.360Z,380
2019-03-28T06:01:38.025Z,388
2019-03-28T06:02:38.017Z,392
2019-03-28T06:03:38.003Z,392
2019-03-28T06:04:37.993Z,404
2019-03-28T06:05:37.983Z,400
2019-03-28T06:06:37.976Z,416
2019-03-28T06:07:38.832Z,412
2019-03-28T06:08:38.203Z,420
2019-03-28T06:09:40.186Z,420
2019-03-28T06:10:38.839Z,428
2019-03-28T06:11:37.926Z,432
2019-03-28T06:12:37.933Z,436
2019-03-28T06:13:37.917Z,444
2019-03-28T06:14:38.039Z,444
2019-03-28T06:15:40.737Z,444
2019-03-28T06:16:37.907Z,452
2019-03-28T06:17:37.880Z,460
2019-03-28T06:18:37.876Z,460
2019-03-28T06:19:38.375Z,460
2019-03-28T06:20:37.855Z,468
2019-03-28T06:21:39.560Z,468
2019-03-28T06:22:37.839Z,468
2019-03-28T06:23:37.820Z,476
2019-03-28T06:24:38.738Z,476
2019-03-28T06:25:40.862Z,472
2019-03-28T06:26:37.802Z,476
2019-03-28T06:27:38.169Z,476
2019-03-28T06:28:37.774Z,476
2019-03-28T06:29:37.786Z,480
2019-03-28T06:30:37.755Z,484
2019-03-28T06:31:38.736Z,484
2019-03-28T06:32:49.925Z,484
2019-03-28T06:33:40.848Z,488
2019-03-28T06:34:37.724Z,492
2019-03-28T06:35:37.719Z,488
2019-03-28T06:36:37.717Z,492
2019-03-28T06:37:37.699Z,492
2019-03-28T06:38:37.688Z,496
2019-03-28T06:39:39.178Z,500
2019-03-28T06:40:38.560Z,496
2019-03-28T06:41:37.669Z,500
2019-03-28T06:42:37.661Z,492
2019-03-28T06:43:37.656Z,496
2019-03-28T06:44:37.642Z,500
2019-03-28T06:45:37.626Z,504
2019-03-28T06:46:37.628Z,508
2019-03-28T06:47:37.613Z,508
2019-03-28T06:48:37.600Z,512
2019-03-28T06:49:37.355Z,516
2019-03-28T06:50:37.585Z,520
2019-03-28T06:51:37.583Z,520
2019-03-28T06:52:37.568Z,520
2019-03-28T06:53:38.301Z,520
2019-03-28T06:54:38.002Z,528
2019-03-28T06:55:39.407Z,528
2019-03-28T06:56:37.536Z,528
2019-03-28T06:57:37.611Z,528
2019-03-28T06:58:37.519Z,524
2019-03-28T06:59:44.783Z,528
2019-03-28T07:00:37.498Z,524
2019-03-28T07:01:37.544Z,528
2019-03-28T07:02:37.485Z,528
2019-03-28T07:03:38.404Z,528
2019-03-28T07:04:37.589Z,524
2019-03-28T07:05:37.455Z,524
2019-03-28T07:06:37.447Z,524
2019-03-28T07:07:37.429Z,532
2019-03-28T07:08:37.423Z,532
2019-03-28T07:09:37.407Z,536
2019-03-28T07:10:37.406Z,536
2019-03-28T07:11:37.450Z,536
2019-03-28T07:12:37.408Z,536
2019-03-28T07:13:37.381Z,536
2019-03-28T07:14:37.365Z,540
2019-03-28T07:15:39.215Z,540
2019-03-28T07:16:37.353Z,540
2019-03-28T07:17:37.346Z,544
2019-03-28T07:18:37.336Z,540
2019-03-28T07:19:37.329Z,540
2019-03-28T07:20:37.317Z,548
2019-03-28T07:21:37.080Z,544
2019-03-28T07:22:37.056Z,544
2019-03-28T07:23:37.306Z,544
2019-03-28T07:24:37.287Z,544
2019-03-28T07:25:37.281Z,544
2019-03-28T07:26:37.271Z,552
2019-03-28T07:27:37.253Z,548
2019-03-28T07:28:38.358Z,552
2019-03-28T07:29:49.702Z,552
2019-03-28T07:30:37.227Z,552
2019-03-28T07:31:40.572Z,556
2019-03-28T07:32:37.217Z,552
2019-03-28T07:33:36.958Z,556
2019-03-28T07:34:37.211Z,556
2019-03-28T07:35:37.190Z,560
2019-03-28T07:36:37.186Z,560
2019-03-28T07:37:37.201Z,560
2019-03-28T07:38:37.166Z,560
2019-03-28T07:39:37.154Z,560
2019-03-28T07:40:40.405Z,556
2019-03-28T07:41:37.142Z,560
2019-03-28T07:42:37.124Z,564
2019-03-28T07:43:37.118Z,564
2019-03-28T07:44:39.968Z,564
2019-03-28T07:45:39.267Z,560
2019-03-28T07:46:37.101Z,560
2019-03-28T07:47:37.084Z,564
2019-03-28T07:48:36.822Z,564
2019-03-28T07:49:40.000Z,560
2019-03-28T07:50:42.495Z,564
2019-03-28T07:51:37.065Z,564
2019-03-28T07:52:37.047Z,564
2019-03-28T07:53:37.048Z,564
2019-03-28T07:54:37.022Z,568
2019-03-28T07:55:37.031Z,564
2019-03-28T07:56:37.016Z,564
2019-03-28T07:57:37.010Z,564
2019-03-28T07:58:37.767Z,564
2019-03-28T07:59:36.986Z,564
2019-03-28T08:00:36.984Z,564
2019-03-28T08:01:36.972Z,560
2019-03-28T08:02:36.967Z,560
2019-03-28T08:03:39.894Z,560
2019-03-28T08:04:36.940Z,564
2019-03-28T08:05:36.933Z,564
2019-03-28T08:06:48.997Z,564
2019-03-28T08:07:49.702Z,560
2019-03-28T08:08:48.994Z,568
2019-03-28T08:09:43.983Z,564
2019-03-28T08:10:36.384Z,564
2019-03-28T08:11:37.541Z,564
2019-03-28T08:12:37.680Z,568
2019-03-28T08:13:36.923Z,568
2019-03-28T08:14:36.654Z,572
2019-03-28T08:15:36.853Z,568
2019-03-28T08:16:36.862Z,568
2019-03-28T08:17:37.463Z,572
2019-03-28T08:18:36.826Z,568
2019-03-28T08:19:37.600Z,572
2019-03-28T08:20:36.840Z,568
2019-03-28T08:21:36.794Z,568
2019-03-28T08:22:36.865Z,572
2019-03-28T08:23:40.059Z,576
2019-03-28T08:24:36.778Z,576
2019-03-28T08:25:36.766Z,580
2019-03-28T08:26:37.619Z,580
2019-03-28T08:27:36.747Z,580
2019-03-28T08:28:36.738Z,584
2019-03-28T08:29:36.733Z,584
2019-03-28T08:30:36.472Z,580
2019-03-28T08:31:36.795Z,580
2019-03-28T08:32:39.721Z,588
2019-03-28T08:33:36.707Z,588
2019-03-28T08:34:38.481Z,588
2019-03-28T08:35:36.684Z,588
2019-03-28T08:36:36.671Z,592
2019-03-28T08:37:36.679Z,592
2019-03-28T08:38:37.608Z,596
2019-03-28T08:39:36.656Z,592
2019-03-28T08:40:39.396Z,592
2019-03-28T08:41:36.634Z,592
2019-03-28T08:42:36.619Z,592
2019-03-28T08:43:38.494Z,588
2019-03-28T08:44:36.607Z,592
2019-03-28T08:45:37.604Z,592
2019-03-28T08:46:36.601Z,592
2019-03-28T08:47:36.582Z,596
2019-03-28T08:48:36.579Z,592
2019-03-28T08:49:36.567Z,596
2019-03-28T08:50:36.556Z,596
2019-03-28T08:51:36.569Z,596
2019-03-28T08:52:36.540Z,596
2019-03-28T08:53:36.530Z,600
2019-03-28T08:54:36.524Z,600
2019-03-28T08:55:36.517Z,600
2019-03-28T08:56:36.514Z,600
2019-03-28T08:57:36.505Z,604
2019-03-28T08:58:38.083Z,604
2019-03-28T08:59:36.479Z,612
2019-03-28T09:00:56.382Z,612
2019-03-28T09:01:36.475Z,608
2019-03-28T09:02:36.455Z,624
2019-03-28T09:03:36.452Z,640
2019-03-28T09:04:36.443Z,624
2019-03-28T09:05:36.516Z,616
2019-03-28T09:06:36.171Z,608
2019-03-28T09:07:36.418Z,620
2019-03-28T09:08:36.411Z,624
2019-03-28T09:09:36.404Z,616
2019-03-28T09:10:36.410Z,616
2019-03-28T09:11:36.384Z,616
2019-03-28T09:12:40.079Z,620
2019-03-28T09:13:36.449Z,628
2019-03-28T09:14:39.111Z,640
2019-03-28T09:15:50.260Z,644
2019-03-28T09:16:36.537Z,640
2019-03-28T09:17:36.341Z,628
2019-03-28T09:18:36.077Z,660
2019-03-28T09:19:38.789Z,664
2019-03-28T09:20:36.336Z,664
2019-03-28T09:21:36.303Z,660
2019-03-28T09:22:38.907Z,640
2019-03-28T09:23:36.490Z,636
2019-03-28T09:24:36.285Z,648
2019-03-28T09:25:36.275Z,648
2019-03-28T09:26:36.264Z,648
2019-03-28T09:27:36.258Z,644
2019-03-28T09:28:36.256Z,632
2019-03-28T09:29:36.247Z,628
2019-03-28T09:30:50.596Z,624
2019-03-28T09:31:36.232Z,632
2019-03-28T09:32:36.223Z,632
2019-03-28T09:33:36.213Z,632
2019-03-28T09:34:36.203Z,632
2019-03-28T09:35:36.377Z,628
2019-03-28T09:36:36.355Z,632
2019-03-28T09:37:36.181Z,632
2019-03-28T09:38:36.175Z,636
2019-03-28T09:39:36.177Z,636
2019-03-28T09:40:36.163Z,636
2019-03-28T09:41:36.177Z,636
2019-03-28T09:42:35.888Z,640
2019-03-28T09:43:36.136Z,644
2019-03-28T09:44:35.872Z,640
2019-03-28T09:45:36.807Z,644
2019-03-28T09:46:36.663Z,644
2019-03-28T09:47:36.091Z,648
2019-03-28T09:48:36.095Z,652
2019-03-28T09:49:36.087Z,648
2019-03-28T09:50:36.083Z,648
2019-03-28T09:51:37.880Z,648
2019-03-28T09:52:36.055Z,648
2019-03-28T09:53:36.046Z,648
2019-03-28T09:54:36.044Z,652
2019-03-28T09:55:36.034Z,656
2019-03-28T09:56:36.024Z,660
2019-03-28T09:57:36.082Z,660
2019-03-28T09:58:36.576Z,664
2019-03-28T09:59:36.013Z,660
2019-03-28T10:00:37.857Z,660
2019-03-28T10:01:35.995Z,660
2019-03-28T10:02:36.007Z,664
2019-03-28T10:03:36.130Z,668
2019-03-28T10:04:35.964Z,672
2019-03-28T10:05:37.920Z,668
2019-03-28T10:06:35.956Z,672
2019-03-28T10:07:38.294Z,668
2019-03-28T10:08:36.002Z,672
2019-03-28T10:09:36.117Z,672
2019-03-28T10:10:35.925Z,668
2019-03-28T10:11:35.919Z,672
2019-03-28T10:12:39.070Z,672
2019-03-28T10:13:35.902Z,676
2019-03-28T10:14:35.890Z,680
2019-03-28T10:15:39.244Z,684
2019-03-28T10:16:35.873Z,684
2019-03-28T10:17:35.865Z,692
2019-03-28T10:18:37.429Z,688
2019-03-28T10:19:35.860Z,688
2019-03-28T10:20:35.846Z,692
2019-03-28T10:21:37.438Z,692
2019-03-28T10:22:35.831Z,688
2019-03-28T10:23:35.817Z,700
2019-03-28T10:24:35.822Z,700
2019-03-28T10:25:35.802Z,700
2019-03-28T10:26:35.795Z,700
2019-03-28T10:27:35.786Z,696
2019-03-28T10:28:35.797Z,692
2019-03-28T10:29:35.776Z,696
2019-03-28T10:30:35.770Z,692
2019-03-28T10:31:35.759Z,696
2019-03-28T10:32:35.747Z,708
2019-03-28T10:33:35.743Z,704
2019-03-28T10:34:36.640Z,708
2019-03-28T10:35:35.483Z,712
2019-03-28T10:36:35.472Z,708
2019-03-28T10:37:35.712Z,708
2019-03-28T10:38:35.713Z,712
2019-03-28T10:39:35.460Z,720
2019-03-28T10:40:36.392Z,728
2019-03-28T10:41:39.438Z,720
2019-03-28T10:42:35.679Z,724
2019-03-28T10:43:35.705Z,732
2019-03-28T10:44:35.660Z,728
2019-03-28T10:45:38.458Z,732
2019-03-28T10:46:35.653Z,748
2019-03-28T10:47:35.644Z,752
2019-03-28T10:48:35.378Z,740
2019-03-28T10:49:35.630Z,732
2019-03-28T10:50:50.526Z,724
2019-03-28T10:51:35.626Z,728
2019-03-28T10:52:35.603Z,736
2019-03-28T10:53:37.328Z,740
2019-03-28T10:54:35.586Z,732
2019-03-28T10:55:35.577Z,732
2019-03-28T10:56:35.569Z,736
2019-03-28T10:57:38.440Z,740
2019-03-28T10:58:37.475Z,748
2019-03-28T10:59:35.548Z,764
2019-03-28T11:00:35.550Z,768
2019-03-28T11:01:55.856Z,784
2019-03-28T11:02:36.304Z,788
2019-03-28T11:03:35.520Z,796
2019-03-28T11:04:35.517Z,808
2019-03-28T11:05:35.297Z,816
2019-03-28T11:06:35.490Z,820
2019-03-28T11:07:35.242Z,820
2019-03-28T11:08:38.911Z,836
2019-03-28T11:09:35.471Z,832
2019-03-28T11:10:37.789Z,828
2019-03-28T11:11:35.462Z,816
2019-03-28T11:12:35.453Z,804
2019-03-28T11:13:35.196Z,800
2019-03-28T11:14:35.437Z,804
2019-03-28T11:15:35.428Z,804
2019-03-28T11:16:36.625Z,800
2019-03-28T11:17:35.417Z,796
2019-03-28T11:18:35.409Z,788
2019-03-28T11:19:35.409Z,788
2019-03-28T11:20:35.816Z,788
2019-03-28T11:21:36.749Z,796
2019-03-28T11:22:35.379Z,832
2019-03-28T11:23:35.376Z,852
2019-03-28T11:24:36.338Z,868
2019-03-28T11:25:35.426Z,844
2019-03-28T11:26:36.316Z,812
2019-03-28T11:27:35.345Z,808
2019-03-28T11:28:35.355Z,812
2019-03-28T11:29:36.177Z,812
2019-03-28T11:30:35.376Z,840
2019-03-28T11:31:52.034Z,868
2019-03-28T11:32:38.366Z,888
2019-03-28T11:33:35.301Z,892
2019-03-28T11:34:35.283Z,884
2019-03-28T11:35:35.288Z,760
2019-03-28T11:36:35.370Z,860
2019-03-28T11:37:35.429Z,852
2019-03-28T11:38:35.981Z,856
2019-03-28T11:39:35.251Z,844
2019-03-28T11:40:35.241Z,868
2019-03-28T11:41:35.236Z,884
2019-03-28T11:42:35.385Z,872
2019-03-28T11:43:35.222Z,864
2019-03-28T11:44:35.217Z,848
2019-03-28T11:45:35.228Z,848
2019-03-28T11:46:35.194Z,860
2019-03-28T11:47:35.187Z,860
2019-03-28T11:48:35.179Z,868
2019-03-28T11:49:35.177Z,872
2019-03-28T11:50:35.169Z,876
2019-03-28T11:51:38.807Z,872
2019-03-28T11:52:35.157Z,872
2019-03-28T11:53:35.231Z,872
2019-03-28T11:54:35.145Z,876
2019-03-28T11:55:35.129Z,888
2019-03-28T11:56:35.137Z,892
2019-03-28T11:57:35.116Z,888
2019-03-28T11:58:35.119Z,900
2019-03-28T11:59:35.757Z,932
2019-03-28T12:00:35.104Z,924
2019-03-28T12:01:35.351Z,920
2019-03-28T12:02:35.077Z,924
2019-03-28T12:03:35.075Z,940
2019-03-28T12:04:36.085Z,976
2019-03-28T12:05:35.062Z,972
2019-03-28T12:06:35.056Z,1004
2019-03-28T12:07:35.047Z,1008
2019-03-28T12:08:35.042Z,1012
2019-03-28T12:09:35.030Z,1044
2019-03-28T12:10:35.020Z,1064
2019-03-28T12:11:35.030Z,1120
2019-03-28T12:12:35.010Z,1112
2019-03-28T12:13:48.620Z,1080
2019-03-28T12:14:34.737Z,1052
2019-03-28T12:15:35.049Z,1020
2019-03-28T12:16:34.975Z,996
2019-03-28T12:17:34.715Z,1020
2019-03-28T12:18:34.959Z,1020
2019-03-28T12:19:34.954Z,1036
2019-03-28T12:20:35.016Z,1024
2019-03-28T12:21:34.943Z,1012
2019-03-28T12:22:34.932Z,1012
2019-03-28T12:23:34.945Z,1008
2019-03-28T12:24:34.995Z,1000
2019-03-28T12:25:34.911Z,996
2019-03-28T12:26:34.969Z,1008
2019-03-28T12:27:34.914Z,1012
2019-03-28T12:28:34.886Z,1028
2019-03-28T12:29:38.272Z,1028
2019-03-28T12:30:34.891Z,1044
2019-03-28T12:31:37.956Z,1048
2019-03-28T12:32:34.868Z,1028
2019-03-28T12:33:34.599Z,1020
2019-03-28T12:34:34.849Z,1040
2019-03-28T12:35:34.946Z,1052
2019-03-28T12:36:34.825Z,1052
2019-03-28T12:37:34.816Z,1048
2019-03-28T12:38:35.978Z,1032
2019-03-28T12:39:34.805Z,1016
2019-03-28T12:40:34.797Z,1036
2019-03-28T12:41:34.561Z,1044
2019-03-28T12:42:34.783Z,1048
2019-03-28T12:43:34.785Z,1044
2019-03-28T12:44:34.770Z,1052
2019-03-28T12:45:34.761Z,1056
2019-03-28T12:46:34.506Z,1064
2019-03-28T12:47:48.843Z,1080
2019-03-28T12:48:34.740Z,1088
2019-03-28T12:49:34.745Z,1080
2019-03-28T12:50:34.727Z,1092
2019-03-28T12:51:34.731Z,1112
2019-03-28T12:52:37.058Z,1132
2019-03-28T12:53:34.702Z,1148
2019-03-28T12:54:35.775Z,1152
2019-03-28T12:55:34.693Z,1156
2019-03-28T12:56:34.729Z,1196
2019-03-28T12:57:35.400Z,1244
2019-03-28T12:58:34.667Z,1264
2019-03-28T12:59:36.226Z,1268
2019-03-28T13:00:34.988Z,1260
2019-03-28T13:01:34.633Z,1220
2019-03-28T13:02:39.041Z,1200
2019-03-28T13:03:50.592Z,1184
2019-03-28T13:04:34.614Z,1208
2019-03-28T13:05:37.247Z,1232
2019-03-28T13:06:35.286Z,1308
2019-03-28T13:07:34.596Z,1284
2019-03-28T13:08:34.590Z,1296
2019-03-28T13:09:35.820Z,1300
2019-03-28T13:10:34.800Z,1300
2019-03-28T13:11:34.567Z,1320
2019-03-28T13:12:34.562Z,1348
2019-03-28T13:13:34.553Z,1344
2019-03-28T13:14:36.186Z,1340
2019-03-28T13:15:34.541Z,1324
2019-03-28T13:16:34.537Z,1292
2019-03-28T13:17:34.522Z,1248
2019-03-28T13:18:35.976Z,1272
2019-03-28T13:19:34.514Z,1324
2019-03-28T13:20:34.517Z,1384
2019-03-28T13:21:34.492Z,1448
2019-03-28T13:22:35.674Z,1448
2019-03-28T13:23:34.491Z,1360
2019-03-28T13:24:34.279Z,1296
2019-03-28T13:25:34.624Z,1312
2019-03-28T13:26:34.210Z,1324
2019-03-28T13:27:37.133Z,1360
2019-03-28T13:28:34.448Z,1296
2019-03-28T13:29:34.439Z,1284
2019-03-28T13:30:34.490Z,1292
2019-03-28T13:31:34.427Z,1268
2019-03-28T13:32:47.711Z,1260
2019-03-28T13:33:34.417Z,1276
2019-03-28T13:34:34.403Z,1268
2019-03-28T13:35:37.540Z,1272
2019-03-28T13:36:34.390Z,1272
2019-03-28T13:37:34.382Z,1272
2019-03-28T13:38:34.385Z,1272
2019-03-28T13:39:34.385Z,1304
2019-03-28T13:40:34.370Z,1352
2019-03-28T13:41:35.306Z,1296
2019-03-28T13:42:34.396Z,1300
2019-03-28T13:43:35.485Z,1312
2019-03-28T13:44:37.357Z,1308
2019-03-28T13:45:34.335Z,1300
2019-03-28T13:46:35.003Z,1304
2019-03-28T13:47:34.312Z,1316
2019-03-28T13:48:34.307Z,1308
2019-03-28T13:49:34.299Z,1308
2019-03-28T13:50:34.287Z,1296
2019-03-28T13:51:34.300Z,1300
2019-03-28T13:52:34.290Z,1308
2019-03-28T13:53:45.959Z,1320
2019-03-28T13:54:34.269Z,1320
2019-03-28T13:55:34.259Z,1332
2019-03-28T13:56:34.525Z,1332
2019-03-28T13:57:34.602Z,1344
2019-03-28T13:58:34.245Z,1364
2019-03-28T13:59:37.694Z,1360
2019-03-28T14:00:34.657Z,1356
2019-03-28T14:01:34.239Z,1356
2019-03-28T14:02:34.215Z,1364
2019-03-28T14:03:34.205Z,1392